sensor_id;sensor_type;location;lat;lon;timestamp;temperature;humidity
3055;DHT22;1537;52.018;8.542;2023-03-08T00:01:11;1.80;99.90
3055;DHT22;1537;52.018;8.542;2023-03-08T00:04:35;1.80;99.90
3055;DHT22;1537;52.018;8.542;2023-03-08T00:08:00;1.90;99.90
3055;DHT22;1537;52.018;8.542;2023-03-08T00:11:24;1.90;99.90
3055;DHT22;1537;52.018;8.542;2023-03-08T00:14:49;1.90;99.90
3055;DHT22;1537;52.018;8.542;2023-03-08T00:18:12;1.80;99.90
3055;DHT22;1537;52.018;8.542;2023-03-08T00:21:36;1.80;99.90
3055;DHT22;1537;52.018;8.542;2023-03-08T00:25:00;1.80;99.90
3055;DHT22;1537;52.018;8.542;2023-03-08T00:28:24;1.80;99.90
3055;DHT22;1537;52.018;8.542;2023-03-08T00:31:50;1.80;99.90
3055;DHT22;1537;52.018;8.542;2023-03-08T00:35:15;1.80;99.90
3055;DHT22;1537;52.018;8.542;2023-03-08T00:38:41;1.80;99.90
3055;DHT22;1537;52.018;8.542;2023-03-08T00:42:05;1.70;99.90
3055;DHT22;1537;52.018;8.542;2023-03-08T00:45:28;1.70;99.90
3055;DHT22;1537;52.018;8.542;2023-03-08T00:48:54;1.70;99.90
3055;DHT22;1537;52.018;8.542;2023-03-08T00:52:19;1.80;99.90
3055;DHT22;1537;52.018;8.542;2023-03-08T00:55:47;1.70;99.90
3055;DHT22;1537;52.018;8.542;2023-03-08T00:59:11;1.60;99.90
3055;DHT22;1537;52.018;8.542;2023-03-08T01:02:35;1.70;99.90
3055;DHT22;1537;52.018;8.542;2023-03-08T01:06:05;1.70;99.90
3055;DHT22;1537;52.018;8.542;2023-03-08T01:09:29;1.70;99.90
3055;DHT22;1537;52.018;8.542;2023-03-08T01:12:52;1.70;99.90
3055;DHT22;1537;52.018;8.542;2023-03-08T01:16:19;1.60;99.90
3055;DHT22;1537;52.018;8.542;2023-03-08T01:19:43;1.60;99.90
3055;DHT22;1537;52.018;8.542;2023-03-08T01:23:08;1.60;99.90
3055;DHT22;1537;52.018;8.542;2023-03-08T01:26:31;1.60;99.70
3055;DHT22;1537;52.018;8.542;2023-03-08T01:29:55;1.60;99.80
3055;DHT22;1537;52.018;8.542;2023-03-08T01:33:19;1.60;99.70
3055;DHT22;1537;52.018;8.542;2023-03-08T01:36:44;1.60;99.30
3055;DHT22;1537;52.018;8.542;2023-03-08T01:40:12;1.40;99.20
3055;DHT22;1537;52.018;8.542;2023-03-08T01:43:38;1.40;99.30
3055;DHT22;1537;52.018;8.542;2023-03-08T01:47:03;1.50;99.50
3055;DHT22;1537;52.018;8.542;2023-03-08T01:50:39;1.50;99.50
3055;DHT22;1537;52.018;8.542;2023-03-08T01:54:07;1.50;99.70
3055;DHT22;1537;52.018;8.542;2023-03-08T01:57:36;1.40;99.40
3055;DHT22;1537;52.018;8.542;2023-03-08T02:01:00;1.40;99.60
3055;DHT22;1537;52.018;8.542;2023-03-08T02:04:25;1.40;99.70
3055;DHT22;1537;52.018;8.542;2023-03-08T02:07:49;1.40;99.70
3055;DHT22;1537;52.018;8.542;2023-03-08T02:11:16;1.50;99.80
3055;DHT22;1537;52.018;8.542;2023-03-08T02:14:43;1.50;99.80
3055;DHT22;1537;52.018;8.542;2023-03-08T02:18:07;1.50;99.70
3055;DHT22;1537;52.018;8.542;2023-03-08T02:21:32;1.50;99.80
3055;DHT22;1537;52.018;8.542;2023-03-08T02:24:57;1.50;99.90
3055;DHT22;1537;52.018;8.542;2023-03-08T02:28:23;1.50;99.90
3055;DHT22;1537;52.018;8.542;2023-03-08T02:31:47;1.60;99.90
3055;DHT22;1537;52.018;8.542;2023-03-08T02:35:11;1.60;99.80
3055;DHT22;1537;52.018;8.542;2023-03-08T02:38:35;1.70;99.80
3055;DHT22;1537;52.018;8.542;2023-03-08T02:42:00;1.80;99.80
3055;DHT22;1537;52.018;8.542;2023-03-08T02:45:24;1.80;99.50
3055;DHT22;1537;52.018;8.542;2023-03-08T02:48:48;1.70;99.40
3055;DHT22;1537;52.018;8.542;2023-03-08T02:52:15;1.60;99.40
3055;DHT22;1537;52.018;8.542;2023-03-08T02:55:39;1.60;99.40
3055;DHT22;1537;52.018;8.542;2023-03-08T02:59:06;1.50;99.40
3055;DHT22;1537;52.018;8.542;2023-03-08T03:02:31;1.40;99.40
3055;DHT22;1537;52.018;8.542;2023-03-08T03:05:55;1.40;99.30
3055;DHT22;1537;52.018;8.542;2023-03-08T03:09:25;1.30;99.40
3055;DHT22;1537;52.018;8.542;2023-03-08T03:12:49;1.40;99.50
3055;DHT22;1537;52.018;8.542;2023-03-08T03:16:16;1.40;99.40
3055;DHT22;1537;52.018;8.542;2023-03-08T03:19:41;1.30;99.30
3055;DHT22;1537;52.018;8.542;2023-03-08T03:23:05;1.30;99.60
3055;DHT22;1537;52.018;8.542;2023-03-08T03:26:38;1.40;99.70
3055;DHT22;1537;52.018;8.542;2023-03-08T03:30:03;1.40;99.20
3055;DHT22;1537;52.018;8.542;2023-03-08T03:33:29;1.40;99.10
3055;DHT22;1537;52.018;8.542;2023-03-08T03:36:53;1.40;99.10
3055;DHT22;1537;52.018;8.542;2023-03-08T03:40:17;1.30;99.10
3055;DHT22;1537;52.018;8.542;2023-03-08T03:43:47;1.30;99.10
3055;DHT22;1537;52.018;8.542;2023-03-08T03:47:11;1.30;99.20
3055;DHT22;1537;52.018;8.542;2023-03-08T03:50:36;1.30;98.90
3055;DHT22;1537;52.018;8.542;2023-03-08T03:54:05;1.20;98.70
3055;DHT22;1537;52.018;8.542;2023-03-08T03:57:32;1.20;99.00
3055;DHT22;1537;52.018;8.542;2023-03-08T04:00:56;1.20;99.50
3055;DHT22;1537;52.018;8.542;2023-03-08T04:04:25;1.40;99.40
3055;DHT22;1537;52.018;8.542;2023-03-08T04:07:51;1.30;98.80
3055;DHT22;1537;52.018;8.542;2023-03-08T04:11:19;1.20;98.80
3055;DHT22;1537;52.018;8.542;2023-03-08T04:14:44;1.10;98.90
3055;DHT22;1537;52.018;8.542;2023-03-08T04:18:09;1.10;99.10
3055;DHT22;1537;52.018;8.542;2023-03-08T04:21:36;1.10;99.20
3055;DHT22;1537;52.018;8.542;2023-03-08T04:25:02;1.10;99.20
3055;DHT22;1537;52.018;8.542;2023-03-08T04:28:43;1.00;99.10
3055;DHT22;1537;52.018;8.542;2023-03-08T04:32:07;1.00;99.10
3055;DHT22;1537;52.018;8.542;2023-03-08T04:35:39;0.90;99.30
3055;DHT22;1537;52.018;8.542;2023-03-08T04:39:04;0.90;99.30
3055;DHT22;1537;52.018;8.542;2023-03-08T04:42:30;0.90;99.40
3055;DHT22;1537;52.018;8.542;2023-03-08T04:45:54;0.90;99.50
3055;DHT22;1537;52.018;8.542;2023-03-08T04:49:18;0.90;99.50
3055;DHT22;1537;52.018;8.542;2023-03-08T04:52:47;0.90;99.60
3055;DHT22;1537;52.018;8.542;2023-03-08T04:56:12;0.90;99.70
3055;DHT22;1537;52.018;8.542;2023-03-08T04:59:42;1.00;99.90
3055;DHT22;1537;52.018;8.542;2023-03-08T05:03:07;1.00;99.60
3055;DHT22;1537;52.018;8.542;2023-03-08T05:06:32;1.00;99.60
3055;DHT22;1537;52.018;8.542;2023-03-08T05:09:55;1.10;99.60
3055;DHT22;1537;52.018;8.542;2023-03-08T05:13:19;1.10;99.70
3055;DHT22;1537;52.018;8.542;2023-03-08T05:16:45;1.20;99.70
3055;DHT22;1537;52.018;8.542;2023-03-08T05:20:09;1.20;99.60
3055;DHT22;1537;52.018;8.542;2023-03-08T05:23:36;1.20;99.50
3055;DHT22;1537;52.018;8.542;2023-03-08T05:27:00;1.20;99.50
3055;DHT22;1537;52.018;8.542;2023-03-08T05:30:25;1.20;99.30
3055;DHT22;1537;52.018;8.542;2023-03-08T05:33:51;1.20;99.40
3055;DHT22;1537;52.018;8.542;2023-03-08T05:37:23;1.20;99.30
3055;DHT22;1537;52.018;8.542;2023-03-08T05:40:50;1.20;99.40
3055;DHT22;1537;52.018;8.542;2023-03-08T05:44:15;1.10;99.40
3055;DHT22;1537;52.018;8.542;2023-03-08T05:47:39;1.10;99.50
3055;DHT22;1537;52.018;8.542;2023-03-08T05:51:07;1.10;99.60
3055;DHT22;1537;52.018;8.542;2023-03-08T05:54:31;1.10;99.50
3055;DHT22;1537;52.018;8.542;2023-03-08T05:57:59;1.10;99.60
3055;DHT22;1537;52.018;8.542;2023-03-08T06:01:24;1.10;99.60
3055;DHT22;1537;52.018;8.542;2023-03-08T06:04:53;1.00;99.40
3055;DHT22;1537;52.018;8.542;2023-03-08T06:08:20;1.00;99.60
3055;DHT22;1537;52.018;8.542;2023-03-08T06:11:44;1.00;99.60
3055;DHT22;1537;52.018;8.542;2023-03-08T06:15:09;1.10;99.70
3055;DHT22;1537;52.018;8.542;2023-03-08T06:18:36;1.10;99.60
3055;DHT22;1537;52.018;8.542;2023-03-08T06:22:02;1.10;99.70
3055;DHT22;1537;52.018;8.542;2023-03-08T06:25:27;1.20;99.60
3055;DHT22;1537;52.018;8.542;2023-03-08T06:28:52;1.20;99.60
3055;DHT22;1537;52.018;8.542;2023-03-08T06:32:19;1.20;99.50
3055;DHT22;1537;52.018;8.542;2023-03-08T06:35:53;1.20;99.60
3055;DHT22;1537;52.018;8.542;2023-03-08T06:39:17;1.30;99.90
3055;DHT22;1537;52.018;8.542;2023-03-08T06:42:42;1.30;99.60
3055;DHT22;1537;52.018;8.542;2023-03-08T06:46:11;1.40;99.50
3055;DHT22;1537;52.018;8.542;2023-03-08T06:49:36;1.40;99.60
3055;DHT22;1537;52.018;8.542;2023-03-08T06:52:59;1.50;99.40
3055;DHT22;1537;52.018;8.542;2023-03-08T06:56:37;1.30;99.20
3055;DHT22;1537;52.018;8.542;2023-03-08T07:00:03;1.30;99.30
3055;DHT22;1537;52.018;8.542;2023-03-08T07:03:27;1.30;99.40
3055;DHT22;1537;52.018;8.542;2023-03-08T07:06:51;1.20;99.30
3055;DHT22;1537;52.018;8.542;2023-03-08T07:10:16;1.20;99.60
3055;DHT22;1537;52.018;8.542;2023-03-08T07:13:40;1.20;99.60
3055;DHT22;1537;52.018;8.542;2023-03-08T07:17:06;1.30;99.70
3055;DHT22;1537;52.018;8.542;2023-03-08T07:20:29;1.40;99.60
3055;DHT22;1537;52.018;8.542;2023-03-08T07:23:53;1.40;99.70
3055;DHT22;1537;52.018;8.542;2023-03-08T07:27:17;1.40;99.50
3055;DHT22;1537;52.018;8.542;2023-03-08T07:30:45;1.50;99.60
3055;DHT22;1537;52.018;8.542;2023-03-08T07:34:11;1.50;99.50
3055;DHT22;1537;52.018;8.542;2023-03-08T07:37:34;1.40;99.50
3055;DHT22;1537;52.018;8.542;2023-03-08T07:40:59;1.40;99.60
3055;DHT22;1537;52.018;8.542;2023-03-08T07:44:22;1.30;99.70
3055;DHT22;1537;52.018;8.542;2023-03-08T07:47:48;1.40;99.90
3055;DHT22;1537;52.018;8.542;2023-03-08T07:51:15;1.40;99.90
3055;DHT22;1537;52.018;8.542;2023-03-08T07:54:39;1.40;99.90
3055;DHT22;1537;52.018;8.542;2023-03-08T07:58:03;1.50;99.80
3055;DHT22;1537;52.018;8.542;2023-03-08T08:01:26;1.50;99.70
3055;DHT22;1537;52.018;8.542;2023-03-08T08:04:52;1.50;99.70
3055;DHT22;1537;52.018;8.542;2023-03-08T08:08:17;1.70;99.90
3055;DHT22;1537;52.018;8.542;2023-03-08T08:11:41;1.80;99.90
3055;DHT22;1537;52.018;8.542;2023-03-08T08:15:05;1.90;99.70
3055;DHT22;1537;52.018;8.542;2023-03-08T08:18:29;2.00;99.30
3055;DHT22;1537;52.018;8.542;2023-03-08T08:21:52;2.00;99.30
3055;DHT22;1537;52.018;8.542;2023-03-08T08:25:18;2.20;99.40
3055;DHT22;1537;52.018;8.542;2023-03-08T08:28:43;2.20;98.50
3055;DHT22;1537;52.018;8.542;2023-03-08T08:32:07;2.20;98.30
3055;DHT22;1537;52.018;8.542;2023-03-08T08:35:31;2.20;98.00
3055;DHT22;1537;52.018;8.542;2023-03-08T08:39:04;2.10;97.20
3055;DHT22;1537;52.018;8.542;2023-03-08T08:42:30;2.30;97.90
3055;DHT22;1537;52.018;8.542;2023-03-08T08:45:55;2.50;97.90
3055;DHT22;1537;52.018;8.542;2023-03-08T08:49:19;2.70;97.10
3055;DHT22;1537;52.018;8.542;2023-03-08T08:52:43;2.80;97.10
3055;DHT22;1537;52.018;8.542;2023-03-08T08:56:11;2.90;96.20
3055;DHT22;1537;52.018;8.542;2023-03-08T08:59:50;2.80;96.50
3055;DHT22;1537;52.018;8.542;2023-03-08T09:03:14;2.70;96.10
3055;DHT22;1537;52.018;8.542;2023-03-08T09:06:38;2.60;96.60
3055;DHT22;1537;52.018;8.542;2023-03-08T09:10:03;2.70;96.60
3055;DHT22;1537;52.018;8.542;2023-03-08T09:13:27;2.70;96.60
3055;DHT22;1537;52.018;8.542;2023-03-08T09:16:52;2.70;96.60
3055;DHT22;1537;52.018;8.542;2023-03-08T09:20:17;2.50;96.80
3055;DHT22;1537;52.018;8.542;2023-03-08T09:23:43;2.50;97.60
3055;DHT22;1537;52.018;8.542;2023-03-08T09:27:07;2.60;97.80
3055;DHT22;1537;52.018;8.542;2023-03-08T09:30:31;2.40;97.70
3055;DHT22;1537;52.018;8.542;2023-03-08T09:33:56;2.10;98.00
3055;DHT22;1537;52.018;8.542;2023-03-08T09:37:21;2.00;98.80
3055;DHT22;1537;52.018;8.542;2023-03-08T09:40:52;2.00;98.90
3055;DHT22;1537;52.018;8.542;2023-03-08T09:44:43;1.80;99.60
3055;DHT22;1537;52.018;8.542;2023-03-08T09:48:13;1.80;99.90
3055;DHT22;1537;52.018;8.542;2023-03-08T09:51:44;1.60;99.90
3055;DHT22;1537;52.018;8.542;2023-03-08T09:55:15;1.60;99.90
3055;DHT22;1537;52.018;8.542;2023-03-08T09:58:41;1.60;99.90
3055;DHT22;1537;52.018;8.542;2023-03-08T10:02:19;1.70;99.50
3055;DHT22;1537;52.018;8.542;2023-03-08T10:05:51;1.50;99.00
3055;DHT22;1537;52.018;8.542;2023-03-08T10:09:27;1.40;99.80
3055;DHT22;1537;52.018;8.542;2023-03-08T10:13:06;1.40;99.90
3055;DHT22;1537;52.018;8.542;2023-03-08T10:16:41;1.60;99.90
3055;DHT22;1537;52.018;8.542;2023-03-08T10:20:16;1.90;99.90
3055;DHT22;1537;52.018;8.542;2023-03-08T10:23:41;2.00;99.90
3055;DHT22;1537;52.018;8.542;2023-03-08T10:27:15;1.90;99.50
3055;DHT22;1537;52.018;8.542;2023-03-08T10:30:52;1.80;99.90
3055;DHT22;1537;52.018;8.542;2023-03-08T10:34:18;1.70;99.90
3055;DHT22;1537;52.018;8.542;2023-03-08T10:37:42;1.30;99.90
3055;DHT22;1537;52.018;8.542;2023-03-08T10:41:15;1.30;99.90
3055;DHT22;1537;52.018;8.542;2023-03-08T10:44:44;1.20;99.90
3055;DHT22;1537;52.018;8.542;2023-03-08T10:48:18;1.00;99.90
3055;DHT22;1537;52.018;8.542;2023-03-08T10:51:52;1.10;99.90
3055;DHT22;1537;52.018;8.542;2023-03-08T10:55:18;1.10;99.90
3055;DHT22;1537;52.018;8.542;2023-03-08T10:58:42;1.30;99.90
3055;DHT22;1537;52.018;8.542;2023-03-08T11:02:17;1.50;99.90
3055;DHT22;1537;52.018;8.542;2023-03-08T11:05:55;1.40;99.90
3055;DHT22;1537;52.018;8.542;2023-03-08T11:09:21;1.50;99.90
3055;DHT22;1537;52.018;8.542;2023-03-08T11:12:47;1.80;99.90
3055;DHT22;1537;52.018;8.542;2023-03-08T11:16:30;1.90;99.90
3055;DHT22;1537;52.018;8.542;2023-03-08T11:20:07;2.00;99.90
3055;DHT22;1537;52.018;8.542;2023-03-08T11:23:39;2.20;99.90
3055;DHT22;1537;52.018;8.542;2023-03-08T11:27:19;2.30;99.90
3055;DHT22;1537;52.018;8.542;2023-03-08T11:30:55;2.30;99.50
3055;DHT22;1537;52.018;8.542;2023-03-08T11:34:41;2.40;99.80
3055;DHT22;1537;52.018;8.542;2023-03-08T11:38:14;2.70;99.30
3055;DHT22;1537;52.018;8.542;2023-03-08T11:41:44;2.60;98.60
3055;DHT22;1537;52.018;8.542;2023-03-08T11:45:17;2.50;98.90
3055;DHT22;1537;52.018;8.542;2023-03-08T11:49:19;2.40;98.50
3055;DHT22;1537;52.018;8.542;2023-03-08T11:52:53;2.30;99.10
3055;DHT22;1537;52.018;8.542;2023-03-08T11:56:36;2.40;99.40
3055;DHT22;1537;52.018;8.542;2023-03-08T12:00:04;2.40;98.90
3055;DHT22;1537;52.018;8.542;2023-03-08T12:03:37;2.30;99.60
3055;DHT22;1537;52.018;8.542;2023-03-08T12:07:08;2.30;99.10
3055;DHT22;1537;52.018;8.542;2023-03-08T12:10:41;2.10;99.20
3055;DHT22;1537;52.018;8.542;2023-03-08T12:14:15;2.10;99.30
3055;DHT22;1537;52.018;8.542;2023-03-08T12:17:43;2.20;99.10
3055;DHT22;1537;52.018;8.542;2023-03-08T12:21:18;2.30;98.90
3055;DHT22;1537;52.018;8.542;2023-03-08T12:24:48;2.40;98.50
3055;DHT22;1537;52.018;8.542;2023-03-08T12:28:17;2.30;98.40
3055;DHT22;1537;52.018;8.542;2023-03-08T12:31:47;2.30;98.10
3055;DHT22;1537;52.018;8.542;2023-03-08T12:35:30;2.30;98.20
3055;DHT22;1537;52.018;8.542;2023-03-08T12:39:05;2.30;98.00
3055;DHT22;1537;52.018;8.542;2023-03-08T12:42:34;2.20;97.90
3055;DHT22;1537;52.018;8.542;2023-03-08T12:46:04;2.20;98.70
3055;DHT22;1537;52.018;8.542;2023-03-08T12:49:32;2.20;98.00
3055;DHT22;1537;52.018;8.542;2023-03-08T12:52:57;2.20;97.70
3055;DHT22;1537;52.018;8.542;2023-03-08T12:56:24;2.00;96.50
3055;DHT22;1537;52.018;8.542;2023-03-08T12:59:55;2.20;97.70
3055;DHT22;1537;52.018;8.542;2023-03-08T13:03:26;2.30;97.10
3055;DHT22;1537;52.018;8.542;2023-03-08T13:07:16;2.30;96.20
3055;DHT22;1537;52.018;8.542;2023-03-08T13:10:57;2.30;96.80
3055;DHT22;1537;52.018;8.542;2023-03-08T13:14:25;2.40;97.30
3055;DHT22;1537;52.018;8.542;2023-03-08T13:17:51;2.40;97.10
3055;DHT22;1537;52.018;8.542;2023-03-08T13:21:24;2.30;96.80
3055;DHT22;1537;52.018;8.542;2023-03-08T13:24:53;2.20;97.30
3055;DHT22;1537;52.018;8.542;2023-03-08T13:28:20;2.20;97.30
3055;DHT22;1537;52.018;8.542;2023-03-08T13:31:44;2.30;97.20
3055;DHT22;1537;52.018;8.542;2023-03-08T13:35:13;2.40;97.60
3055;DHT22;1537;52.018;8.542;2023-03-08T13:38:37;2.30;96.90
3055;DHT22;1537;52.018;8.542;2023-03-08T13:42:07;2.40;97.10
3055;DHT22;1537;52.018;8.542;2023-03-08T13:45:31;2.20;97.00
3055;DHT22;1537;52.018;8.542;2023-03-08T13:48:55;2.20;97.10
3055;DHT22;1537;52.018;8.542;2023-03-08T13:52:20;2.20;97.10
3055;DHT22;1537;52.018;8.542;2023-03-08T13:55:47;2.40;97.70
3055;DHT22;1537;52.018;8.542;2023-03-08T13:59:18;2.40;96.90
3055;DHT22;1537;52.018;8.542;2023-03-08T14:02:45;2.30;96.70
3055;DHT22;1537;52.018;8.542;2023-03-08T14:06:16;2.20;96.80
3055;DHT22;1537;52.018;8.542;2023-03-08T14:09:41;2.20;96.80
3055;DHT22;1537;52.018;8.542;2023-03-08T14:13:06;2.20;96.60
3055;DHT22;1537;52.018;8.542;2023-03-08T14:16:40;2.20;97.30
3055;DHT22;1537;52.018;8.542;2023-03-08T14:20:18;2.30;97.10
3055;DHT22;1537;52.018;8.542;2023-03-08T14:23:46;2.10;96.40
3055;DHT22;1537;52.018;8.542;2023-03-08T14:27:31;2.20;96.70
3055;DHT22;1537;52.018;8.542;2023-03-08T14:30:55;2.20;96.90
3055;DHT22;1537;52.018;8.542;2023-03-08T14:34:23;2.20;97.20
3055;DHT22;1537;52.018;8.542;2023-03-08T14:37:47;2.30;97.00
3055;DHT22;1537;52.018;8.542;2023-03-08T14:41:10;2.10;97.30
3055;DHT22;1537;52.018;8.542;2023-03-08T14:44:37;2.30;97.70
3055;DHT22;1537;52.018;8.542;2023-03-08T14:48:20;2.30;97.60
3055;DHT22;1537;52.018;8.542;2023-03-08T14:51:46;2.30;97.80
3055;DHT22;1537;52.018;8.542;2023-03-08T14:55:20;2.30;97.90
3055;DHT22;1537;52.018;8.542;2023-03-08T14:58:46;2.40;98.00
3055;DHT22;1537;52.018;8.542;2023-03-08T15:02:13;2.40;97.80
3055;DHT22;1537;52.018;8.542;2023-03-08T15:05:37;2.20;97.70
3055;DHT22;1537;52.018;8.542;2023-03-08T15:09:06;2.20;97.60
3055;DHT22;1537;52.018;8.542;2023-03-08T15:12:31;2.10;97.20
3055;DHT22;1537;52.018;8.542;2023-03-08T15:15:56;2.10;97.40
3055;DHT22;1537;52.018;8.542;2023-03-08T15:19:22;2.10;97.40
3055;DHT22;1537;52.018;8.542;2023-03-08T15:22:48;2.20;97.50
3055;DHT22;1537;52.018;8.542;2023-03-08T15:26:21;2.30;97.40
3055;DHT22;1537;52.018;8.542;2023-03-08T15:29:45;2.50;97.50
3055;DHT22;1537;52.018;8.542;2023-03-08T15:33:09;2.50;97.10
3055;DHT22;1537;52.018;8.542;2023-03-08T15:36:33;2.50;96.90
3055;DHT22;1537;52.018;8.542;2023-03-08T15:39:58;2.40;96.90
3055;DHT22;1537;52.018;8.542;2023-03-08T15:43:23;2.40;97.30
3055;DHT22;1537;52.018;8.542;2023-03-08T15:46:47;2.30;96.90
3055;DHT22;1537;52.018;8.542;2023-03-08T15:50:15;2.30;97.20
3055;DHT22;1537;52.018;8.542;2023-03-08T15:53:39;2.30;97.20
3055;DHT22;1537;52.018;8.542;2023-03-08T15:57:03;2.30;97.20
3055;DHT22;1537;52.018;8.542;2023-03-08T16:00:28;2.30;97.40
3055;DHT22;1537;52.018;8.542;2023-03-08T16:03:53;2.20;97.60
3055;DHT22;1537;52.018;8.542;2023-03-08T16:07:18;2.20;98.10
3055;DHT22;1537;52.018;8.542;2023-03-08T16:10:41;2.10;98.50
3055;DHT22;1537;52.018;8.542;2023-03-08T16:14:05;2.10;98.90
3055;DHT22;1537;52.018;8.542;2023-03-08T16:17:30;2.10;99.10
3055;DHT22;1537;52.018;8.542;2023-03-08T16:20:54;2.00;99.20
3055;DHT22;1537;52.018;8.542;2023-03-08T16:24:18;2.00;99.50
3055;DHT22;1537;52.018;8.542;2023-03-08T16:27:41;1.80;99.80
3055;DHT22;1537;52.018;8.542;2023-03-08T16:31:05;1.80;99.90
3055;DHT22;1537;52.018;8.542;2023-03-08T16:34:31;1.90;99.90
3055;DHT22;1537;52.018;8.542;2023-03-08T16:37:55;1.80;99.90
3055;DHT22;1537;52.018;8.542;2023-03-08T16:41:19;1.80;99.90
3055;DHT22;1537;52.018;8.542;2023-03-08T16:44:48;1.80;99.90
3055;DHT22;1537;52.018;8.542;2023-03-08T16:48:11;1.70;99.90
3055;DHT22;1537;52.018;8.542;2023-03-08T16:51:37;1.80;99.90
3055;DHT22;1537;52.018;8.542;2023-03-08T16:55:01;1.70;99.90
3055;DHT22;1537;52.018;8.542;2023-03-08T16:58:25;1.60;99.90
3055;DHT22;1537;52.018;8.542;2023-03-08T17:01:48;1.60;99.90
3055;DHT22;1537;52.018;8.542;2023-03-08T17:05:12;1.60;99.90
3055;DHT22;1537;52.018;8.542;2023-03-08T17:08:37;1.70;99.90
3055;DHT22;1537;52.018;8.542;2023-03-08T17:12:01;1.60;99.90
3055;DHT22;1537;52.018;8.542;2023-03-08T17:15:25;1.60;99.90
3055;DHT22;1537;52.018;8.542;2023-03-08T17:18:50;1.50;99.90
3055;DHT22;1537;52.018;8.542;2023-03-08T17:22:14;1.50;99.90
3055;DHT22;1537;52.018;8.542;2023-03-08T17:25:39;1.50;99.90
3055;DHT22;1537;52.018;8.542;2023-03-08T17:29:03;1.50;99.90
3055;DHT22;1537;52.018;8.542;2023-03-08T17:32:26;1.40;99.90
3055;DHT22;1537;52.018;8.542;2023-03-08T17:35:51;1.40;99.90
3055;DHT22;1537;52.018;8.542;2023-03-08T17:39:15;1.40;99.90
3055;DHT22;1537;52.018;8.542;2023-03-08T17:42:40;1.30;99.90
3055;DHT22;1537;52.018;8.542;2023-03-08T17:46:16;1.40;99.90
3055;DHT22;1537;52.018;8.542;2023-03-08T17:49:47;1.40;99.90
3055;DHT22;1537;52.018;8.542;2023-03-08T17:53:11;1.40;99.90
3055;DHT22;1537;52.018;8.542;2023-03-08T17:56:34;1.40;99.90
3055;DHT22;1537;52.018;8.542;2023-03-08T18:00:02;1.40;99.90
3055;DHT22;1537;52.018;8.542;2023-03-08T18:03:32;1.40;99.90
3055;DHT22;1537;52.018;8.542;2023-03-08T18:06:56;1.50;99.90
3055;DHT22;1537;52.018;8.542;2023-03-08T18:10:20;1.60;99.90
3055;DHT22;1537;52.018;8.542;2023-03-08T18:13:44;1.60;99.90
3055;DHT22;1537;52.018;8.542;2023-03-08T18:17:09;1.50;99.90
3055;DHT22;1537;52.018;8.542;2023-03-08T18:20:33;1.40;99.90
3055;DHT22;1537;52.018;8.542;2023-03-08T18:23:57;1.40;99.90
3055;DHT22;1537;52.018;8.542;2023-03-08T18:27:23;1.40;99.90
3055;DHT22;1537;52.018;8.542;2023-03-08T18:30:47;1.40;99.90
3055;DHT22;1537;52.018;8.542;2023-03-08T18:34:13;1.40;99.90
3055;DHT22;1537;52.018;8.542;2023-03-08T18:37:36;1.40;99.90
3055;DHT22;1537;52.018;8.542;2023-03-08T18:41:09;1.40;99.90
3055;DHT22;1537;52.018;8.542;2023-03-08T18:44:33;1.30;99.90
3055;DHT22;1537;52.018;8.542;2023-03-08T18:47:59;1.30;99.90
3055;DHT22;1537;52.018;8.542;2023-03-08T18:51:25;1.40;99.90
3055;DHT22;1537;52.018;8.542;2023-03-08T18:54:49;1.40;99.90
3055;DHT22;1537;52.018;8.542;2023-03-08T18:58:12;1.40;99.90
3055;DHT22;1537;52.018;8.542;2023-03-08T19:01:36;1.40;99.90
3055;DHT22;1537;52.018;8.542;2023-03-08T19:05:01;1.50;99.90
3055;DHT22;1537;52.018;8.542;2023-03-08T19:08:27;1.60;99.90
3055;DHT22;1537;52.018;8.542;2023-03-08T19:11:50;1.40;99.90
3055;DHT22;1537;52.018;8.542;2023-03-08T19:15:14;1.40;99.90
3055;DHT22;1537;52.018;8.542;2023-03-08T19:18:38;1.50;99.90
3055;DHT22;1537;52.018;8.542;2023-03-08T19:22:02;1.50;99.90
3055;DHT22;1537;52.018;8.542;2023-03-08T19:25:29;1.40;99.90
3055;DHT22;1537;52.018;8.542;2023-03-08T19:28:53;1.50;99.90
3055;DHT22;1537;52.018;8.542;2023-03-08T19:32:16;1.50;99.90
3055;DHT22;1537;52.018;8.542;2023-03-08T19:35:41;1.50;99.90
3055;DHT22;1537;52.018;8.542;2023-03-08T19:39:06;1.50;99.90
3055;DHT22;1537;52.018;8.542;2023-03-08T19:42:32;1.50;99.90
3055;DHT22;1537;52.018;8.542;2023-03-08T19:45:55;1.50;99.90
3055;DHT22;1537;52.018;8.542;2023-03-08T19:49:23;1.50;99.90
3055;DHT22;1537;52.018;8.542;2023-03-08T19:52:48;1.50;99.90
3055;DHT22;1537;52.018;8.542;2023-03-08T19:56:17;1.50;99.90
3055;DHT22;1537;52.018;8.542;2023-03-08T19:59:43;1.50;99.90
3055;DHT22;1537;52.018;8.542;2023-03-08T20:03:06;1.50;99.90
3055;DHT22;1537;52.018;8.542;2023-03-08T20:06:32;1.50;99.90
3055;DHT22;1537;52.018;8.542;2023-03-08T20:09:55;1.50;99.90
3055;DHT22;1537;52.018;8.542;2023-03-08T20:13:36;1.60;99.90
3055;DHT22;1537;52.018;8.542;2023-03-08T20:17:01;1.50;99.90
3055;DHT22;1537;52.018;8.542;2023-03-08T20:20:26;1.50;99.90
3055;DHT22;1537;52.018;8.542;2023-03-08T20:23:51;1.50;99.90
3055;DHT22;1537;52.018;8.542;2023-03-08T20:27:16;1.50;99.90
3055;DHT22;1537;52.018;8.542;2023-03-08T20:30:40;1.50;99.90
3055;DHT22;1537;52.018;8.542;2023-03-08T20:34:05;1.50;99.90
3055;DHT22;1537;52.018;8.542;2023-03-08T20:37:29;1.60;99.90
3055;DHT22;1537;52.018;8.542;2023-03-08T20:41:00;1.60;99.90
3055;DHT22;1537;52.018;8.542;2023-03-08T20:44:24;1.50;99.90
3055;DHT22;1537;52.018;8.542;2023-03-08T20:47:47;1.60;99.90
3055;DHT22;1537;52.018;8.542;2023-03-08T20:51:15;1.50;99.90
3055;DHT22;1537;52.018;8.542;2023-03-08T20:54:39;1.50;99.90
3055;DHT22;1537;52.018;8.542;2023-03-08T20:58:03;1.60;99.90
3055;DHT22;1537;52.018;8.542;2023-03-08T21:01:29;1.50;99.90
3055;DHT22;1537;52.018;8.542;2023-03-08T21:04:55;1.40;99.90
3055;DHT22;1537;52.018;8.542;2023-03-08T21:08:20;1.40;99.90
3055;DHT22;1537;52.018;8.542;2023-03-08T21:11:45;1.40;99.90
3055;DHT22;1537;52.018;8.542;2023-03-08T21:15:10;1.40;99.90
3055;DHT22;1537;52.018;8.542;2023-03-08T21:18:34;1.40;99.90
3055;DHT22;1537;52.018;8.542;2023-03-08T21:21:58;1.50;99.90
3055;DHT22;1537;52.018;8.542;2023-03-08T21:25:23;1.50;99.90
3055;DHT22;1537;52.018;8.542;2023-03-08T21:28:47;1.50;99.90
3055;DHT22;1537;52.018;8.542;2023-03-08T21:32:10;1.40;99.90
3055;DHT22;1537;52.018;8.542;2023-03-08T21:35:36;1.40;99.90
3055;DHT22;1537;52.018;8.542;2023-03-08T21:39:00;1.30;99.90
3055;DHT22;1537;52.018;8.542;2023-03-08T21:42:26;1.30;99.90
3055;DHT22;1537;52.018;8.542;2023-03-08T21:45:50;1.40;99.90
3055;DHT22;1537;52.018;8.542;2023-03-08T21:49:15;1.40;99.90
3055;DHT22;1537;52.018;8.542;2023-03-08T21:52:39;1.40;99.90
3055;DHT22;1537;52.018;8.542;2023-03-08T21:56:05;1.50;99.90
3055;DHT22;1537;52.018;8.542;2023-03-08T21:59:30;1.50;99.90
3055;DHT22;1537;52.018;8.542;2023-03-08T22:02:54;1.50;99.90
3055;DHT22;1537;52.018;8.542;2023-03-08T22:06:18;1.50;99.90
3055;DHT22;1537;52.018;8.542;2023-03-08T22:09:42;1.50;99.90
3055;DHT22;1537;52.018;8.542;2023-03-08T22:13:06;1.40;99.90
3055;DHT22;1537;52.018;8.542;2023-03-08T22:16:31;1.40;99.90
3055;DHT22;1537;52.018;8.542;2023-03-08T22:19:59;1.40;99.90
3055;DHT22;1537;52.018;8.542;2023-03-08T22:23:22;1.40;99.90
3055;DHT22;1537;52.018;8.542;2023-03-08T22:26:47;1.40;99.90
3055;DHT22;1537;52.018;8.542;2023-03-08T22:30:11;1.20;99.90
3055;DHT22;1537;52.018;8.542;2023-03-08T22:33:37;1.20;99.90
3055;DHT22;1537;52.018;8.542;2023-03-08T22:37:01;1.30;99.90
3055;DHT22;1537;52.018;8.542;2023-03-08T22:40:24;1.20;99.90
3055;DHT22;1537;52.018;8.542;2023-03-08T22:43:48;1.30;99.90
3055;DHT22;1537;52.018;8.542;2023-03-08T22:47:12;1.30;99.90
3055;DHT22;1537;52.018;8.542;2023-03-08T22:50:37;1.30;99.90